Time;durP1;ratioP1;P1;durP2;ratioP2;P2;SDS_P1;SDS_P2;PMS_P1;PMS_P2;Temp;Humidity;BMP_temperature;BMP_pressure;BME280_temperature;BME280_humidity;BME280_pressure;Samples;Min_cycle;Max_cycle;Signal;HPM_P1;HPM_P2
2022/08/18 00:02:19;;;;;;;19.63;7.68;;;;;;;27.09;35.06;99553.22;5093575;28;20527;-66
2022/08/18 00:04:45;;;;;;;24.27;8.60;;;;;;;26.95;35.80;99571.97;5093416;28;20047;-66
2022/08/18 00:07:15;;;;;;;20.38;8.00;;;;;;;26.93;35.86;99565.13;5093374;28;20052;-66
2022/08/18 00:09:41;;;;;;;21.70;8.27;;;;;;;26.78;36.11;99576.78;5093535;28;20122;-67
2022/08/18 00:12:22;;;;;;;22.00;8.23;;;;;;;26.74;36.49;99569.41;5092059;28;20180;-66
2022/08/18 00:14:48;;;;;;;24.30;8.45;;;;;;;26.63;36.62;99567.66;5092930;28;20047;-66
2022/08/18 00:17:15;;;;;;;24.80;7.55;;;;;;;26.38;37.24;99565.59;5093090;28;20390;-66
2022/08/18 00:19:41;;;;;;;24.52;8.07;;;;;;;26.44;37.20;99567.28;5092165;28;20042;-66
2022/08/18 00:22:07;;;;;;;26.58;8.15;;;;;;;26.58;36.67;99568.47;5091800;28;20134;-67
2022/08/18 00:24:33;;;;;;;19.17;7.82;;;;;;;26.28;37.08;99541.84;5075017;28;20101;-66
2022/08/18 00:26:58;;;;;;;28.42;8.35;;;;;;;26.37;37.29;99570.22;5091842;28;20123;-66
2022/08/18 00:29:24;;;;;;;19.35;7.82;;;;;;;26.37;37.40;99562.06;5091790;28;20122;-66
2022/08/18 00:31:50;;;;;;;29.27;8.38;;;;;;;26.28;37.34;99550.00;5074905;28;20048;-66
2022/08/18 00:34:16;;;;;;;22.75;7.90;;;;;;;26.38;37.35;99566.44;5092982;28;20036;-67
2022/08/18 00:36:42;;;;;;;22.92;7.93;;;;;;;26.41;37.03;99574.09;5092147;28;20051;-65
2022/08/18 00:39:08;;;;;;;43.60;8.85;;;;;;;26.40;37.18;99568.91;5093184;28;20564;-66
2022/08/18 00:41:34;;;;;;;36.35;9.05;;;;;;;26.23;37.22;99539.06;5074772;28;20097;-66
2022/08/18 00:44:00;;;;;;;30.10;8.57;;;;;;;26.39;37.07;99564.50;5074823;28;20040;-66
2022/08/18 00:46:29;;;;;;;35.33;9.02;;;;;;;26.46;37.61;99560.47;5092703;28;20043;-66
2022/08/18 00:48:55;;;;;;;24.23;8.90;;;;;;;26.40;37.54;99561.53;5091309;28;20040;-66
2022/08/18 00:51:41;;;;;;;24.65;8.68;;;;;;;26.54;37.28;99561.09;5092481;28;20055;-65
2022/08/18 00:54:14;;;;;;;25.35;8.00;;;;;;;26.56;37.28;99559.72;5091566;28;20035;-66
2022/08/18 00:56:49;;;;;;;19.10;8.23;;;;;;;26.57;37.47;99557.81;5092545;28;20498;-65
2022/08/18 00:59:33;;;;;;;17.00;8.60;;;;;;;26.58;37.40;99551.28;5093017;28;20036;-66
2022/08/18 01:02:01;;;;;;;29.25;9.13;;;;;;;26.47;37.54;99550.41;5092908;28;20067;-69
2022/08/18 01:04:34;;;;;;;21.80;9.10;;;;;;;26.54;37.62;99566.53;5074929;28;20039;-66
2022/08/18 01:07:04;;;;;;;25.85;9.23;;;;;;;26.49;37.86;99570.84;5092465;28;20464;-65
2022/08/18 01:09:30;;;;;;;35.30;8.90;;;;;;;26.21;37.98;99549.44;5091194;28;20051;-66
2022/08/18 01:11:56;;;;;;;26.27;8.50;;;;;;;26.31;38.09;99559.53;5092374;28;20051;-66
2022/08/18 01:14:21;;;;;;;21.88;8.30;;;;;;;26.25;38.31;99555.97;5092310;28;20074;-66
2022/08/18 01:22:31;;;;;;;28.25;9.15;;;;;;;26.35;38.17;99580.53;5073557;28;20048;-67
2022/08/18 01:27:45;;;;;;;18.15;8.18;;;;;;;26.15;38.32;99590.47;5090092;28;20051;-67
2022/08/18 01:30:15;;;;;;;17.27;7.78;;;;;;;26.09;38.19;99554.22;5091549;28;20040;-66
2022/08/18 01:32:44;;;;;;;21.85;8.50;;;;;;;26.10;38.23;99574.09;5091768;28;20456;-66
2022/08/18 01:35:13;;;;;;;17.63;7.88;;;;;;;26.16;38.70;99575.78;5090696;28;20071;-66
2022/08/18 01:37:40;;;;;;;18.90;8.27;;;;;;;25.99;38.42;99573.19;5090803;28;20054;-66
2022/08/18 01:40:08;;;;;;;24.05;8.40;;;;;;;25.98;38.58;99555.19;5091049;28;20062;-64
2022/08/18 01:42:35;;;;;;;20.38;7.82;;;;;;;26.06;38.42;99573.78;5090556;28;20040;-67
2022/08/18 01:45:06;;;;;;;15.93;7.72;;;;;;;25.92;38.57;99564.41;5091407;28;20044;-65
2022/08/18 01:47:33;;;;;;;21.38;7.93;;;;;;;26.05;38.45;99571.31;5091442;28;20140;-66
2022/08/18 01:49:59;;;;;;;16.27;8.10;;;;;;;26.05;38.77;99574.88;5091597;28;20062;-66
2022/08/18 01:52:27;;;;;;;22.85;8.80;;;;;;;26.07;38.54;99571.91;5091276;28;20036;-66
2022/08/18 01:54:53;;;;;;;21.00;8.63;;;;;;;26.01;38.52;99573.75;5056872;28;20056;-66
2022/08/18 01:57:20;;;;;;;21.25;8.68;;;;;;;26.11;38.31;99575.72;5089769;28;20093;-66
2022/08/18 01:59:45;;;;;;;24.52;8.88;;;;;;;25.89;38.74;99569.53;5091377;28;20048;-65
2022/08/18 02:02:15;;;;;;;20.95;8.45;;;;;;;26.07;38.73;99583.63;5090083;28;20044;-66
2022/08/18 02:04:41;;;;;;;19.00;8.85;;;;;;;25.92;39.07;99580.72;5091449;28;20036;-65
2022/08/18 02:07:10;;;;;;;17.15;9.07;;;;;;;26.03;39.15;99592.56;5089043;28;20052;-66
2022/08/18 02:09:37;;;;;;;22.38;9.35;;;;;;;25.97;39.08;99607.97;5072689;28;20123;-66
2022/08/18 02:12:05;;;;;;;23.52;9.38;;;;;;;25.90;38.96;99582.88;5090420;28;20051;-66
2022/08/18 02:14:33;;;;;;;18.30;8.98;;;;;;;25.98;38.92;99601.47;5090321;28;20070;-65
2022/08/18 02:17:00;;;;;;;22.50;9.13;;;;;;;26.01;38.98;99606.44;5089995;28;20518;-66
2022/08/18 02:19:26;;;;;;;26.30;9.45;;;;;;;25.94;38.72;99604.97;5089922;28;20036;-66
2022/08/18 02:21:54;;;;;;;20.77;9.13;;;;;;;26.04;39.05;99607.81;5090085;28;20089;-67
2022/08/18 02:24:20;;;;;;;25.55;9.45;;;;;;;25.94;38.95;99611.22;5072093;28;20489;-66
2022/08/18 02:26:46;;;;;;;20.15;10.48;;;;;;;25.94;38.82;99613.94;5071882;28;20135;-66
2022/08/18 02:29:11;;;;;;;24.08;9.60;;;;;;;25.95;38.71;99610.16;5088739;28;20050;-65
2022/08/18 02:31:37;;;;;;;23.17;9.75;;;;;;;25.94;38.96;99615.84;5089945;28;20130;-66
2022/08/18 02:34:03;;;;;;;20.00;10.25;;;;;;;25.97;38.62;99615.34;5089820;28;20051;-66
2022/08/18 02:36:28;;;;;;;21.75;10.35;;;;;;;25.98;38.62;99615.09;5089827;28;20066;-66
2022/08/18 02:38:54;;;;;;;28.38;9.82;;;;;;;25.93;38.46;99589.69;5070715;28;20040;-67
2022/08/18 02:41:21;;;;;;;25.40;11.10;;;;;;;26.13;38.61;99606.25;5072212;28;20501;-66
2022/08/18 02:43:47;;;;;;;23.05;11.40;;;;;;;26.02;38.22;99608.06;5088665;28;20501;-66
2022/08/18 02:46:13;;;;;;;20.80;11.32;;;;;;;26.06;38.28;99625.50;5089501;28;20054;-66
2022/08/18 02:48:39;;;;;;;19.50;11.32;;;;;;;26.02;38.71;99620.84;5089607;28;20131;-66
2022/08/18 02:51:11;;;;;;;23.83;13.95;;;;;;;26.15;38.21;99617.72;5088682;28;20186;-66
2022/08/18 02:53:39;;;;;;;33.25;18.42;;;;;;;26.03;38.39;99609.69;5089762;28;20051;-66
2022/08/18 02:56:37;;;;;;;35.00;17.48;;;;;;;26.20;38.24;99629.44;5090004;28;20382;-65
2022/08/18 02:59:05;;;;;;;28.27;16.08;;;;;;;26.17;38.23;99621.00;5089483;28;20095;-66
2022/08/18 03:01:34;;;;;;;28.17;14.85;;;;;;;26.14;38.27;99616.88;5072192;28;20138;-68
2022/08/18 03:04:01;;;;;;;26.85;13.73;;;;;;;26.01;38.38;99617.31;5090504;28;20043;-66
2022/08/18 03:06:29;;;;;;;29.40;13.43;;;;;;;26.15;38.46;99615.81;5046357;28;1204483;-66
2022/08/18 03:08:55;;;;;;;27.45;14.75;;;;;;;26.09;38.13;99607.84;5072559;28;20498;-67
2022/08/18 03:11:24;;;;;;;29.15;15.45;;;;;;;26.25;38.23;99615.06;5089148;28;20047;-65
2022/08/18 03:13:50;;;;;;;29.75;14.75;;;;;;;26.15;38.36;99618.53;5088952;28;20044;-66
2022/08/18 03:16:16;;;;;;;27.52;15.60;;;;;;;26.14;38.38;99616.88;5090152;28;20098;-66
2022/08/18 03:18:43;;;;;;;30.60;17.65;;;;;;;26.05;38.10;99596.66;5090435;28;20058;-66
2022/08/18 03:21:11;;;;;;;34.22;17.60;;;;;;;26.21;38.37;99614.78;5089826;28;20044;-66
2022/08/18 03:23:39;;;;;;;30.15;18.17;;;;;;;26.09;38.56;99605.94;5088716;28;20051;-66
2022/08/18 03:26:10;;;;;;;28.00;16.98;;;;;;;26.42;38.02;99611.13;5090552;28;20044;-66
2022/08/18 03:28:41;;;;;;;33.38;18.30;;;;;;;26.73;37.28;99622.25;5089153;28;20065;-67
2022/08/18 03:31:07;;;;;;;36.97;19.52;;;;;;;26.66;37.36;99610.78;5072336;28;20130;-66
2022/08/18 03:33:34;;;;;;;45.33;22.10;;;;;;;26.65;37.07;99617.31;5072324;28;20066;-65
2022/08/18 03:36:04;;;;;;;30.98;18.80;;;;;;;26.59;37.26;99600.06;5090146;28;20491;-66
2022/08/18 03:38:30;;;;;;;;;;;;;;;26.84;36.96;99619.34;5089535;28;20554;-66
2022/08/18 03:40:55;;;;;;;47.67;29.15;;;;;;;26.42;37.32;99602.94;5090118;28;20007;-66
2022/08/18 03:43:21;;;;;;;41.25;26.73;;;;;;;26.52;37.44;99622.06;5089124;28;20138;-65
2022/08/18 03:45:47;;;;;;;41.75;25.42;;;;;;;26.55;37.28;99615.31;5088606;28;20081;-66
2022/08/18 03:48:13;;;;;;;31.70;22.83;;;;;;;26.59;37.31;99624.59;5071732;28;20036;-66
2022/08/18 03:50:38;;;;;;;41.15;23.13;;;;;;;26.55;37.40;99619.91;5091821;28;20035;-66
2022/08/18 03:53:04;;;;;;;45.28;23.95;;;;;;;26.61;37.71;99616.16;5093588;28;20113;-66
2022/08/18 03:55:30;;;;;;;49.75;32.63;;;;;;;26.60;37.01;99619.97;5092578;28;20063;-66
2022/08/18 03:58:01;;;;;;;49.78;29.20;;;;;;;26.61;37.32;99621.59;5092700;28;20040;-66
2022/08/18 04:00:28;;;;;;;;;;;;;;;26.77;36.91;99609.75;5093645;28;20547;-67
2022/08/18 04:02:55;;;;;;;50.33;29.42;;;;;;;26.72;36.91;99626.91;5092335;28;19927;-66
2022/08/18 04:05:21;;;;;;;45.78;29.17;;;;;;;26.82;37.20;99623.38;5075107;28;20065;-67
2022/08/18 04:07:47;;;;;;;55.35;32.05;;;;;;;26.89;36.96;99629.44;5093181;28;20052;-66
2022/08/18 04:10:12;;;;;;;52.85;34.65;;;;;;;26.84;36.94;99608.44;5091864;28;20105;-66
2022/08/18 04:12:40;;;;;;;63.35;35.05;;;;;;;27.18;36.34;99633.41;5093149;28;20058;-66
2022/08/18 04:15:06;;;;;;;65.80;43.00;;;;;;;27.02;36.24;99631.69;5091965;28;20040;-66
2022/08/18 04:17:32;;;;;;;72.05;42.97;;;;;;;27.12;36.18;99629.03;5092936;28;20509;-66
2022/08/18 04:19:57;;;;;;;65.00;42.58;;;;;;;27.24;36.05;99637.81;5093065;28;20143;-66
2022/08/18 04:22:24;;;;;;;72.28;43.97;;;;;;;27.28;35.96;99637.03;5091768;28;20062;-66
2022/08/18 04:24:50;;;;;;;71.05;49.28;;;;;;;27.00;36.29;99629.22;5092858;28;20493;-66
2022/08/18 04:27:16;;;;;;;86.93;57.00;;;;;;;27.12;36.29;99642.66;5092759;28;20040;-66
2022/08/18 04:29:44;;;;;;;74.18;49.03;;;;;;;27.37;36.07;99643.63;5091579;28;20054;-66
2022/08/18 04:32:13;;;;;;;92.68;60.58;;;;;;;26.81;36.42;99619.03;5092986;28;20138;-67
2022/08/18 04:34:41;;;;;;;84.97;54.75;;;;;;;27.22;36.24;99648.97;5093874;28;20067;-66
2022/08/18 04:37:08;;;;;;;89.55;58.58;;;;;;;27.38;35.86;99644.44;5076360;28;20047;-66
2022/08/18 04:39:34;;;;;;;87.57;58.55;;;;;;;27.39;35.72;99643.34;5092204;28;20046;-66
2022/08/18 04:42:03;;;;;;;94.15;60.17;;;;;;;27.58;35.51;99647.25;5092600;28;20417;-67
2022/08/18 04:44:29;;;;;;;86.63;57.90;;;;;;;27.53;35.84;99647.22;5094194;28;20135;-66
2022/08/18 04:46:55;;;;;;;97.65;57.72;;;;;;;27.66;35.66;99658.44;5075921;28;20119;-66
2022/08/18 04:49:24;;;;;;;84.15;56.95;;;;;;;27.87;35.53;99653.91;5093145;28;20386;-66
2022/08/18 04:54:38;;;;;;;95.43;58.08;;;;;;;27.84;34.88;99641.59;5092860;28;20058;-66
2022/08/18 04:57:15;;;;;;;85.43;56.08;;;;;;;28.02;34.37;99634.81;5074266;28;20040;-66
2022/08/18 04:59:47;;;;;;;84.72;54.20;;;;;;;28.17;34.41;99656.69;5091069;28;20036;-66
2022/08/18 05:02:14;;;;;;;79.13;53.08;;;;;;;28.17;34.46;99659.41;5091075;28;20048;-66
2022/08/18 05:04:41;;;;;;;84.38;49.75;;;;;;;28.26;34.58;99655.06;5092183;28;20051;-66
2022/08/18 05:07:09;;;;;;;79.47;48.63;;;;;;;28.41;34.33;99660.53;5090899;28;20083;-66
2022/08/18 05:09:36;;;;;;;79.55;45.20;;;;;;;28.52;34.25;99659.47;5090762;28;20040;-66
2022/08/18 05:12:04;;;;;;;70.63;42.28;;;;;;;28.71;33.73;99663.28;5091829;28;20124;-66
2022/08/18 05:14:30;;;;;;;67.72;41.55;;;;;;;28.69;33.98;99664.66;5091100;28;20119;-66
2022/08/18 05:17:00;;;;;;;60.05;40.88;;;;;;;28.88;33.60;99665.69;5090507;28;20039;-66
2022/08/18 05:19:26;;;;;;;65.25;39.35;;;;;;;28.85;33.33;99669.00;5091761;28;20047;-66
2022/08/18 05:21:53;;;;;;;60.50;38.42;;;;;;;28.87;33.41;99664.06;5091642;28;20043;-66
2022/08/18 05:24:20;;;;;;;59.90;37.42;;;;;;;28.99;33.23;99673.63;5091642;28;20126;-66
2022/08/18 05:26:47;;;;;;;61.38;36.92;;;;;;;29.16;32.58;99668.69;5091792;28;20036;-66
2022/08/18 05:29:14;;;;;;;54.13;37.42;;;;;;;29.20;32.85;99664.28;5073479;28;20089;-67
2022/08/18 05:31:39;;;;;;;56.65;36.08;;;;;;;29.01;32.62;99622.22;5090394;28;20528;-66
2022/08/18 05:34:05;;;;;;;59.47;35.83;;;;;;;29.32;32.35;99645.63;5090216;28;20122;-66
2022/08/18 05:36:49;;;;;;;57.25;33.97;;;;;;;29.74;32.09;99669.03;5091897;28;20425;-66
2022/08/18 05:39:23;;;;;;;54.72;33.60;;;;;;;29.89;31.99;99667.03;5073711;28;20044;-66
2022/08/18 05:41:53;;;;;;;57.90;32.53;;;;;;;30.06;31.77;99672.13;5090257;28;20043;-66
2022/08/18 05:44:24;;;;;;;55.05;32.20;;;;;;;30.15;31.53;99671.25;5090026;28;20512;-67
2022/08/18 05:47:14;;;;;;;51.72;31.63;;;;;;;30.29;31.44;99672.25;5091355;28;20039;-66
2022/08/18 05:49:42;;;;;;;54.00;31.92;;;;;;;30.49;31.02;99679.53;5088028;28;20497;-66
2022/08/18 05:52:32;;;;;;;56.38;31.65;;;;;;;30.70;30.74;99675.50;5090151;28;20071;-66
2022/08/18 05:58:04;;;;;;;50.22;29.65;;;;;;;30.92;30.46;99686.84;5090093;28;20055;-66
2022/08/18 06:00:30;;;;;;;51.30;30.40;;;;;;;30.96;30.26;99679.66;5091237;28;20047;-66
2022/08/18 06:03:15;;;;;;;55.35;29.25;;;;;;;31.17;30.00;99685.75;5089842;28;20555;-66
2022/08/18 06:05:52;;;;;;;49.97;27.85;;;;;;;31.26;29.54;99682.06;5091030;28;20044;-66
2022/08/18 06:08:21;;;;;;;46.08;27.42;;;;;;;31.38;29.69;99682.53;5089933;28;20036;-66
2022/08/18 06:10:48;;;;;;;43.50;24.70;;;;;;;31.43;29.69;99678.91;5073165;28;20173;-66
2022/08/18 06:13:15;;;;;;;54.42;25.95;;;;;;;31.55;29.47;99682.88;5089286;28;20119;-66
2022/08/18 06:16:05;;;;;;;47.20;23.90;;;;;;;31.74;28.36;99688.38;5089601;28;20501;-66
2022/08/18 06:18:34;;;;;;;;;;;;;;;31.92;28.27;99693.13;5091476;28;20059;-66
2022/08/18 06:21:15;;;;;;;41.30;22.67;;;;;;;32.00;28.22;99693.25;5089589;28;19927;-66
2022/08/18 06:24:05;;;;;;;35.42;21.67;;;;;;;32.17;28.08;99695.47;5090746;28;20073;-66
2022/08/18 06:26:51;;;;;;;;;;;;;;;32.36;27.80;99694.41;5091265;28;20130;-66
2022/08/18 06:29:37;;;;;;;39.97;21.50;;;;;;;32.44;28.05;99701.94;5089270;28;19923;-66
2022/08/18 06:32:33;;;;;;;38.78;20.48;;;;;;;32.63;27.65;99705.50;5089880;28;20044;-66
2022/08/18 06:35:11;;;;;;;43.88;20.58;;;;;;;32.77;27.33;99696.50;5089562;28;20048;-66
2022/08/18 06:40:34;;;;;;;33.67;20.42;;;;;;;32.99;26.99;99688.41;5089792;28;20059;-66
2022/08/18 06:42:59;;;;;;;33.15;19.00;;;;;;;32.98;26.66;99695.03;5090673;28;20047;-66
2022/08/18 06:45:34;;;;;;;38.90;19.00;;;;;;;33.29;26.54;99707.91;5089458;28;20048;-66
2022/08/18 06:48:09;;;;;;;38.83;18.80;;;;;;;33.32;26.23;99704.53;5072368;28;20098;-66
2022/08/18 06:50:47;;;;;;;32.45;18.40;;;;;;;33.60;26.10;99699.88;5090881;28;20051;-66
2022/08/18 06:53:13;;;;;;;33.90;17.90;;;;;;;33.51;26.58;99707.22;5090533;28;20055;-66
2022/08/18 06:55:45;;;;;;;35.20;16.75;;;;;;;33.69;25.68;99706.31;5090782;28;20048;-66
2022/08/18 06:58:12;;;;;;;37.10;16.52;;;;;;;33.73;25.86;99705.41;5072921;28;20048;-66
2022/08/18 07:00:45;;;;;;;38.90;17.13;;;;;;;34.01;25.91;99700.69;5090698;28;20097;-67
2022/08/18 07:03:13;;;;;;;33.22;15.18;;;;;;;34.10;25.85;99701.56;5089373;28;20044;-66
2022/08/18 07:06:03;;;;;;;40.25;15.85;;;;;;;34.27;25.88;99707.25;5089129;28;20047;-67
2022/08/18 07:08:40;;;;;;;36.15;14.43;;;;;;;34.20;25.09;99704.09;5090499;28;20070;-66
2022/08/18 07:11:25;;;;;;;34.08;11.70;;;;;;;34.19;24.80;99706.03;5090940;28;20055;-66
2022/08/18 07:13:54;;;;;;;41.78;11.13;;;;;;;33.93;24.78;99709.69;5090391;28;20461;-66
2022/08/18 07:16:26;;;;;;;21.30;9.90;;;;;;;34.30;24.44;99708.56;5090585;28;20048;-66
2022/08/18 07:18:52;;;;;;;26.80;9.85;;;;;;;34.36;24.32;99701.78;5090587;28;20072;-66
2022/08/18 07:21:32;;;;;;;34.38;9.55;;;;;;;34.87;23.43;99713.28;5090323;28;20087;-66
2022/08/18 07:24:04;;;;;;;26.85;9.00;;;;;;;35.16;23.16;99695.09;5090566;28;20047;-66
2022/08/18 07:26:29;;;;;;;20.25;8.00;;;;;;;35.78;22.61;99693.06;5092542;28;20040;-66
2022/08/18 07:29:12;;;;;;;27.38;8.73;;;;;;;37.40;20.53;99706.81;5094135;28;20089;-67
2022/08/18 07:31:42;;;;;;;29.38;7.63;;;;;;;38.81;18.77;99693.78;5094429;28;20051;-67
2022/08/18 07:34:16;;;;;;;23.17;7.20;;;;;;;41.17;16.22;99675.00;5093022;28;20036;-67
2022/08/18 07:36:49;;;;;;;17.60;5.90;;;;;;;43.08;14.48;99697.63;5075842;28;20032;-68
2022/08/18 07:39:27;;;;;;;17.33;6.00;;;;;;;44.87;12.60;99702.34;5092860;28;20048;-67
2022/08/18 07:42:03;;;;;;;16.63;4.95;;;;;;;46.53;11.50;99708.09;5093738;28;20079;-69
2022/08/18 07:44:45;;;;;;;15.73;4.75;;;;;;;47.80;10.38;99700.66;5093826;28;20058;-66
2022/08/18 07:47:24;;;;;;;15.95;4.70;;;;;;;48.92;9.03;99695.41;5075550;28;20044;-68
2022/08/18 07:49:57;;;;;;;14.90;3.83;;;;;;;49.68;8.90;99689.63;5092528;28;20050;-68
2022/08/18 07:52:48;;;;;;;16.92;3.85;;;;;;;50.26;8.03;99691.41;5092423;28;20443;-68
2022/08/18 07:55:34;;;;;;;17.73;3.80;;;;;;;51.05;7.79;99692.81;5093296;28;20044;-68
2022/08/18 07:58:31;;;;;;;19.60;3.75;;;;;;;51.67;7.31;99684.53;5075416;28;20040;-69
2022/08/18 08:01:28;;;;;;;16.10;3.42;;;;;;;52.32;6.75;99686.47;5092384;28;20047;-69
2022/08/18 08:04:18;;;;;;;11.50;3.10;;;;;;;52.48;6.86;99668.72;5072668;28;20047;-69
2022/08/18 08:06:48;;;;;;;10.30;3.13;;;;;;;53.52;6.21;99675.94;5075031;28;20055;-70
2022/08/18 08:09:35;;;;;;;15.90;3.15;;;;;;;54.55;5.68;99688.91;5075141;28;20130;-70
2022/08/18 08:12:06;;;;;;;12.20;3.08;;;;;;;53.61;5.99;99670.44;5092120;28;20051;-70
2022/08/18 08:14:41;;;;;;;14.90;3.00;;;;;;;54.15;5.77;99681.94;5091858;28;20180;-69
2022/08/18 08:17:42;;;;;;;8.88;2.90;;;;;;;54.68;5.25;99666.97;5093522;28;20130;-68
2022/08/18 08:20:19;;;;;;;6.45;2.50;;;;;;;53.79;5.65;99675.66;5067039;28;20441;-69
2022/08/18 08:23:08;;;;;;;8.18;3.30;;;;;;;54.77;5.21;99687.00;5091982;28;20048;-71
2022/08/18 08:25:43;;;;;;;9.15;2.50;;;;;;;55.59;5.06;99681.06;5093296;28;20052;-69
2022/08/18 08:28:12;;;;;;;7.35;2.70;;;;;;;55.80;4.27;99686.00;5075295;28;20080;-70
2022/08/18 08:30:54;;;;;;;16.05;2.78;;;;;;;55.12;4.60;99674.47;5092146;28;20040;-70
2022/08/18 08:33:41;;;;;;;13.35;2.30;;;;;;;55.90;4.15;99676.25;5091901;28;20115;-70
2022/08/18 08:36:11;;;;;;;9.20;2.80;;;;;;;56.10;4.13;99665.34;5091396;28;20059;-70
2022/08/18 08:38:47;;;;;;;18.70;2.17;;;;;;;56.00;3.75;99666.50;5091839;28;20044;-70
2022/08/18 08:41:27;;;;;;;9.98;1.98;;;;;;;56.77;3.65;99664.78;5075000;28;20196;-69
2022/08/18 08:44:17;;;;;;;12.38;2.20;;;;;;;57.08;3.34;99651.28;5091399;28;20524;-70
2022/08/18 08:46:54;;;;;;;9.88;1.75;;;;;;;57.72;2.86;99662.34;5091823;28;20145;-69
2022/08/18 08:49:27;;;;;;;13.77;2.10;;;;;;;57.96;3.08;99647.44;5057757;28;20051;-70
2022/08/18 08:51:57;;;;;;;14.52;1.95;;;;;;;56.81;2.98;99665.47;5091317;28;20051;-69
2022/08/18 08:54:27;;;;;;;10.15;1.88;;;;;;;56.95;3.25;99642.03;5092493;28;20155;-69
2022/08/18 08:56:54;;;;;;;14.80;1.92;;;;;;;57.33;3.17;99660.38;5074104;28;20052;-69
2022/08/18 08:59:21;;;;;;;10.10;1.90;;;;;;;57.88;2.58;99649.81;5092142;28;20050;-69
2022/08/18 09:01:54;;;;;;;16.83;1.92;;;;;;;58.55;2.60;99644.59;5090960;28;20055;-69
2022/08/18 09:04:28;;;;;;;5.38;1.60;;;;;;;58.11;3.00;99643.44;5092239;28;20076;-70
2022/08/18 09:07:34;;;;;;;11.88;2.15;;;;;;;57.60;2.73;99642.50;5090333;28;20056;-69
2022/08/18 09:10:28;;;;;;;9.38;1.95;;;;;;;57.66;2.93;99640.59;5063659;28;20052;-69
2022/08/18 09:13:48;;;;;;;12.77;1.80;;;;;;;57.94;2.61;99647.91;5092083;28;20044;-69
2022/08/18 09:16:52;;;;;;;7.05;1.73;;;;;;;59.03;2.28;99642.66;5072744;28;20533;-69
2022/08/18 09:19:45;;;;;;;8.57;1.90;;;;;;;59.57;1.91;99641.53;5068133;28;20044;-70
2022/08/18 09:22:28;;;;;;;13.88;1.80;;;;;;;60.07;1.74;99641.22;5090821;28;20051;-70
2022/08/18 09:24:55;;;;;;;7.88;1.33;;;;;;;60.55;1.42;99636.06;5090482;28;20044;-70
2022/08/18 09:27:37;;;;;;;7.65;1.80;;;;;;;60.83;1.68;99625.03;5073812;28;20429;-67
2022/08/18 09:30:06;;;;;;;18.33;2.00;;;;;;;60.79;1.20;99631.00;5090463;28;20405;-70
2022/08/18 09:33:09;;;;;;;15.02;1.90;;;;;;;60.72;1.67;99611.31;5091882;28;20097;-70
2022/08/18 09:35:42;;;;;;;12.15;1.77;;;;;;;60.69;1.23;99629.53;5056580;28;20433;-70
2022/08/18 09:41:31;;;;;;;8.98;1.67;;;;;;;60.98;1.47;99625.81;5090418;28;20054;-67
2022/08/18 09:44:09;;;;;;;23.10;1.88;;;;;;;61.03;1.36;99634.50;5091714;28;20048;-70
2022/08/18 09:46:41;;;;;;;16.90;1.90;;;;;;;58.75;2.34;99624.00;5091566;28;20566;-69
2022/08/18 09:49:22;;;;;;;9.55;1.80;;;;;;;58.58;2.29;99620.72;5072850;28;20127;-69
2022/08/18 09:51:54;;;;;;;10.65;1.83;;;;;;;59.13;2.13;99624.16;5091140;28;20070;-70
2022/08/18 09:54:23;;;;;;;12.20;2.10;;;;;;;60.02;1.61;99629.66;5091303;28;20130;-69
2022/08/18 09:56:49;;;;;;;7.75;1.90;;;;;;;59.27;1.65;99636.97;5089946;28;20040;-70
2022/08/18 09:59:33;;;;;;;11.23;1.73;;;;;;;58.12;2.01;99615.63;5091394;28;20051;-69
2022/08/18 10:02:00;;;;;;;8.25;2.15;;;;;;;58.22;2.28;99603.69;5091175;28;20051;-70
2022/08/18 10:04:27;;;;;;;6.55;1.85;;;;;;;58.78;1.78;99611.59;5089497;28;20574;-69
2022/08/18 10:06:53;;;;;;;10.07;1.98;;;;;;;59.13;2.07;99616.31;5091125;28;20060;-69
2022/08/18 10:09:22;;;;;;;17.48;2.05;;;;;;;58.93;2.02;99630.44;5089398;28;20040;-69
2022/08/18 10:12:08;;;;;;;8.73;1.83;;;;;;;57.22;2.53;99604.97;5073285;28;20055;-69
2022/08/18 10:14:54;;;;;;;9.43;1.65;;;;;;;58.35;1.83;99603.47;5078711;28;20054;-70
2022/08/18 10:17:51;;;;;;;5.88;1.42;;;;;;;58.56;1.92;99606.09;5090894;28;20136;-70
2022/08/18 10:20:55;;;;;;;8.68;1.73;;;;;;;58.51;1.59;99597.38;5090956;28;20071;-70
2022/08/18 10:23:40;;;;;;;24.00;3.25;;;;;;;58.32;1.64;99607.28;5089582;28;20101;-69
2022/08/18 10:26:28;;;;;;;9.90;1.77;;;;;;;57.96;1.65;99602.47;5072790;28;20097;-69
2022/08/18 10:29:10;;;;;;;6.80;1.67;;;;;;;58.19;1.57;99604.66;5090614;28;20127;-69
2022/08/18 10:31:54;;;;;;;2.92;1.70;;;;;;;59.06;1.33;99595.84;5089649;28;20052;-69
2022/08/18 10:34:38;;;;;;;6.63;1.55;;;;;;;58.91;1.55;99598.63;5090711;28;20048;-70
2022/08/18 10:37:36;;;;;;;7.72;1.50;;;;;;;59.56;1.09;99611.28;5089593;28;20044;-69
2022/08/18 10:40:12;;;;;;;10.23;1.55;;;;;;;59.45;0.67;99600.34;5090583;28;20044;-69
2022/08/18 10:42:42;;;;;;;7.40;1.60;;;;;;;58.89;0.96;99603.25;5090758;28;20051;-69
2022/08/18 10:45:37;;;;;;;11.20;1.50;;;;;;;58.61;1.11;99605.44;5090677;28;20050;-68
2022/08/18 10:48:03;;;;;;;9.80;1.50;;;;;;;57.89;1.43;99601.97;5089163;28;20044;-68
2022/08/18 10:50:57;;;;;;;6.45;1.58;;;;;;;57.94;1.43;99593.56;5090849;28;20429;-70
2022/08/18 10:53:48;;;;;;;2.10;1.40;;;;;;;58.25;1.28;99585.56;5072269;28;20109;-70
2022/08/18 10:56:26;;;;;;;8.57;1.75;;;;;;;58.79;0.93;99598.88;5071737;28;20044;-69
2022/08/18 10:59:25;;;;;;;13.00;1.30;;;;;;;56.86;1.37;99577.09;5090725;28;20541;-70
2022/08/18 11:02:29;;;;;;;14.95;2.63;;;;;;;55.07;2.11;99581.06;5093134;28;20101;-70
2022/08/18 11:04:55;;;;;;;9.43;2.13;;;;;;;55.29;2.28;99581.94;5092467;28;20051;-70
2022/08/18 11:07:27;;;;;;;14.35;2.65;;;;;;;53.19;3.15;99583.50;5093530;28;20071;-70
2022/08/18 11:09:55;;;;;;;10.35;2.45;;;;;;;53.23;2.93;99567.97;5093478;28;20075;-70
2022/08/18 11:13:06;;;;;;;7.57;1.90;;;;;;;52.59;2.84;99581.34;5093351;28;20047;-70
2022/08/18 11:15:57;;;;;;;5.95;1.60;;;;;;;52.25;2.73;99566.72;5093233;28;20821;-70
2022/08/18 11:18:38;;;;;;;10.20;1.90;;;;;;;51.09;3.34;99561.31;5093253;28;20173;-70
2022/08/18 11:21:35;;;;;;;10.07;1.60;;;;;;;47.07;4.88;99559.56;5075957;28;20044;-69
2022/08/18 11:24:06;;;;;;;8.82;1.60;;;;;;;46.29;5.85;99549.41;5076168;28;20048;-69
2022/08/18 11:26:42;;;;;;;11.18;1.92;;;;;;;45.32;6.68;99568.16;5093037;28;20051;-69
2022/08/18 11:29:25;;;;;;;10.40;1.80;;;;;;;43.96;7.24;99562.78;5093346;28;20040;-70
2022/08/18 11:31:58;;;;;;;7.70;1.60;;;;;;;43.00;7.63;99550.53;5093352;28;20044;-69
2022/08/18 11:34:48;;;;;;;8.20;1.83;;;;;;;43.29;7.90;99557.41;5059255;28;20047;-69
2022/08/18 11:37:44;;;;;;;9.55;2.28;;;;;;;43.65;8.15;99559.53;5092868;28;20040;-69
2022/08/18 11:40:25;;;;;;;4.22;1.40;;;;;;;42.45;8.04;99548.34;5075803;28;20120;-69
2022/08/18 11:43:09;;;;;;;6.28;1.88;;;;;;;41.99;8.37;99543.81;5093067;28;20476;-69
2022/08/18 11:45:51;;;;;;;7.80;1.45;;;;;;;40.56;9.35;99545.56;5093759;28;20168;-69
2022/08/18 11:48:18;;;;;;;7.72;1.67;;;;;;;40.10;9.61;99562.97;5094034;28;20405;-69
2022/08/18 11:51:27;;;;;;;12.88;2.00;;;;;;;40.21;9.91;99562.09;5093773;28;20062;-69
2022/08/18 11:53:58;;;;;;;4.60;1.30;;;;;;;40.18;9.34;99564.81;5086542;28;20071;-69
2022/08/18 11:56:28;;;;;;;8.45;1.40;;;;;;;39.53;10.00;99543.78;5093943;28;20798;-69
2022/08/18 11:59:03;;;;;;;5.55;1.33;;;;;;;39.47;10.14;99558.28;5075674;28;20051;-69
2022/08/18 12:01:34;;;;;;;3.92;1.50;;;;;;;39.37;10.38;99555.94;5093459;28;20421;-69
2022/08/18 12:04:12;;;;;;;6.90;1.75;;;;;;;39.14;10.56;99558.41;5093729;28;20040;-69
2022/08/18 12:06:50;;;;;;;8.63;1.98;;;;;;;38.14;11.27;99563.63;5093296;28;20059;-69
2022/08/18 12:09:38;;;;;;;5.55;1.50;;;;;;;38.05;11.40;99554.53;5093297;28;20501;-69
2022/08/18 12:12:43;;;;;;;8.55;1.67;;;;;;;38.13;11.88;99548.13;5091454;28;20052;-68
2022/08/18 12:15:12;;;;;;;5.45;1.80;;;;;;;38.08;11.42;99553.88;5048089;28;20044;-69
2022/08/18 12:17:39;;;;;;;5.18;2.00;;;;;;;37.72;11.49;99534.28;5092102;28;20048;-69
2022/08/18 12:20:07;;;;;;;8.90;2.08;;;;;;;37.07;12.33;99551.47;5075345;28;20417;-69